Latest Weather Observations for Cape Sorell

IDT60801

Issued at 3:05 pm EST Wednesday 17 September 2014 (issued every 30 minutes, with the page automatically refreshed every 10 minutes)

About weather observations | Map of weather stations | Latest weather observations for TAS | Other Formats
Station Details ID: 097000 Name: CAPE SORELL Lat: -42.20 Lon: 145.17 Height: 19.3 m
Data from the previous 72 hours. | See also: Recent months at Cape Sorell
Date/Time
EST
Temp
°C
App
Temp
°C
Dew
Point
Rel
Hum
%
Delta-T
°C
Wind Press
QNH
hPa
Press
MSL
hPa
Rain
since 9 am
mm
Dir
 
Spd
km/h
Gust
km/h
Spd
kts
Gust
kts
17/03:00pm 8.1 -1.6 4.1 76 1.7 SSW 44 61 24 33 1007.8 1007.9 0.8
17/02:48pm 8.9 -0.7 4.3 73 2.0 SSW 44 63 24 34 1007.2 1007.3 0.8
17/02:33pm 7.7 -2.1 3.2 73 1.9 SW 44 50 24 27 1007.4 1007.5 0.8
17/02:30pm 7.8 -6.0 3.1 72 2.0 SW 65 76 35 41 1007.1 1007.2 0.8
17/02:25pm 9.0 -4.7 3.8 70 2.3 SW 65 74 35 40 1006.3 1006.3 0.8
17/02:22pm 9.9 -0.1 4.1 67 2.6 SW 46 69 25 37 1006.6 1006.6 0.8
17/02:00pm 9.3 -1.0 4.7 73 2.1 SW 48 59 26 32 1006.6 1006.6 0.8
17/01:30pm 10.1 -0.6 4.7 69 2.4 SW 50 61 27 33 1006.0 1006.0 0.8
17/01:02pm 8.6 -0.5 6.1 84 1.1 SW 43 48 23 26 1006.3 1006.3 0.8
17/01:01pm 8.3 1.6 5.8 84 1.1 W 30 48 16 26 1006.3 1006.3 0.8
17/01:00pm 8.0 1.3 5.6 85 1.1 W 30 46 16 25 1006.4 1006.4 0.8
17/12:45pm 7.0 -1.7 4.3 83 1.2 W 39 50 21 27 1006.2 1006.2 0.8
17/12:30pm 7.8 -2.6 4.2 78 1.6 WSW 48 65 26 35 1005.8 1005.8 0.8
17/12:00pm 9.2 0.5 5.8 79 1.6 SW 41 48 22 26 1005.9 1005.9 0.8
17/11:30am 9.6 0.5 4.0 68 2.5 SW 41 61 22 33 1005.6 1005.6 0.0
17/11:00am 10.2 2.1 5.2 71 2.3 SSW 37 50 20 27 1006.1 1006.1 0.0
17/10:30am 9.9 0.9 4.5 69 2.4 SW 41 48 22 26 1005.9 1005.9 0.0
17/10:00am 8.8 -0.3 6.1 83 1.2 SW 43 54 23 29 1005.7 1005.7 0.0
17/09:30am 7.9 0.9 6.0 88 0.9 SW 32 52 17 28 1006.2 1006.2 0.0
17/09:06am 8.5 0.8 7.0 90 0.7 SW 37 59 20 32 1006.1 1006.1 0.0
17/09:00am 8.3 -0.2 7.1 92 0.6 WSW 41 50 22 27 1006.0 1006.0 6.4
17/08:40am 7.9 1.9 7.0 94 0.4 WSW 28 50 15 27 1005.8 1005.8 6.4
17/08:30am 7.3 2.0 6.6 95 0.3 WSW 24 32 13 17 1006.1 1006.1 6.4
17/08:00am 6.9 -3.1 6.2 95 0.3 WSW 48 61 26 33 1005.8 1005.8 6.2
17/07:33am 7.4 -5.0 6.3 93 0.5 WSW 61 82 33 44 1004.9 1004.9 5.2
17/07:30am 7.2 -5.7 5.8 91 0.6 WSW 63 82 34 44 1004.7 1004.7 5.2
17/07:27am 8.0 -4.5 6.1 88 0.9 WSW 61 82 33 44 1004.2 1004.2 4.6
17/07:26am 8.9 3.7 7.2 89 0.8 W 24 72 13 39 1005.2 1005.2 4.4
17/07:00am 8.8 2.4 7.1 89 0.8 WSW 30 37 16 20 1005.2 1005.2 4.0
17/06:30am 9.2 2.4 7.8 91 0.7 SW 33 43 18 23 1005.2 1005.2 4.0
17/06:00am 8.7 0.3 7.2 90 0.7 WSW 41 48 22 26 1005.2 1005.2 4.0
17/05:37am 9.4 -0.5 6.5 82 1.3 W 48 57 26 31 1005.0 1005.0 3.6
17/05:30am 9.9 5.5 7.2 83 1.3 WNW 20 26 11 14 1005.4 1005.4 3.6
17/05:00am 9.7 5.3 7.6 87 1.0 WNW 20 26 11 14 1005.6 1005.6 3.6
17/04:30am 9.8 5.2 8.1 89 0.8 W 22 32 12 17 1005.8 1005.8 3.6
17/04:00am 9.9 5.7 8.3 90 0.8 W 20 28 11 15 1005.9 1005.9 3.6
17/03:30am 9.4 5.3 7.8 90 0.8 W 19 24 10 13 1006.1 1006.1 3.6
17/03:00am 9.7 4.7 8.0 89 0.8 W 24 32 13 17 1006.4 1006.4 3.4
17/02:30am 10.1 6.2 8.5 90 0.8 WNW 19 22 10 12 1006.8 1006.8 2.6
17/02:00am 9.9 5.9 8.3 90 0.8 WNW 19 24 10 13 1007.2 1007.3 2.6
17/01:30am 9.7 5.4 8.0 89 0.8 NNW 20 28 11 15 1007.6 1007.7 2.6
17/01:00am 10.9 5.7 8.8 87 1.0 N 26 33 14 18 1007.2 1007.3 0.0
17/12:30am 10.7 5.0 8.5 86 1.1 N 28 32 15 17 1007.9 1008.0 0.0
17/12:00am 10.6 6.3 7.7 82 1.4 N 20 26 11 14 1008.1 1008.2 0.0
 
Date/Time
EST
Temp
°C
App
Temp
°C
Dew
Point
Rel
Hum
%
Delta-T
°C
Wind Press
QNH
hPa
Press
MSL
hPa
Rain
since 9 am
mm
Dir
 
Spd
km/h
Gust
km/h
Spd
kts
Gust
kts
16/11:30pm 10.4 6.5 7.3 81 1.5 NW 17 24 9 13 1008.3 1008.4 0.0
16/11:00pm 11.6 7.6 9.0 84 1.3 N 20 28 11 15 1008.6 1008.7 0.0
16/10:30pm 11.4 7.9 8.8 84 1.3 NNW 17 24 9 13 1008.9 1009.0 0.0
16/10:00pm 11.2 7.7 8.8 85 1.2 NNW 17 24 9 13 1009.2 1009.3 0.0
16/09:30pm 11.2 6.8 8.9 86 1.1 N 22 26 12 14 1009.3 1009.4 0.0
16/09:00pm 11.2 6.8 9.1 87 1.0 N 22 28 12 15 1009.5 1009.6 0.0
16/08:30pm 11.2 7.8 9.1 87 1.0 NNW 17 22 9 12 1009.6 1009.7 0.0
16/08:00pm 11.0 7.9 8.9 87 1.0 N 15 22 8 12 1009.7 1009.8 0.0
16/07:30pm 11.0 8.6 8.8 86 1.1 NNW 11 17 6 9 1009.7 1009.8 0.0
16/07:00pm 10.6 8.1 8.4 86 1.1 NW 11 15 6 8 1009.7 1009.8 0.0
16/06:30pm 10.8 8.4 8.6 86 1.1 NW 11 17 6 9 1009.7 1009.8 0.0
16/06:00pm 10.9 8.1 8.7 86 1.1 WNW 13 17 7 9 1009.7 1009.8 0.0
16/05:30pm 11.0 8.6 8.6 85 1.2 WNW 11 17 6 9 1009.6 1009.7 0.0
16/05:00pm 11.0 8.6 8.6 85 1.2 WNW 11 13 6 7 1009.5 1009.6 0.0
16/04:30pm 11.2 7.1 7.9 80 1.6 W 19 24 10 13 1009.5 1009.6 0.0
16/04:00pm 12.0 7.8 7.5 74 2.2 W 19 26 10 14 1009.4 1009.5 0.0
16/03:30pm 13.2 9.9 7.9 70 2.6 W 15 20 8 11 1009.4 1009.5 0.0
16/03:00pm 14.2 11.9 7.5 64 3.3 W 9 13 5 7 1009.4 1009.5 0.0
16/02:30pm 13.8 11.6 7.8 67 3.0 W 9 13 5 7 1009.4 1009.5 0.0
16/02:00pm 13.8 11.5 7.6 66 3.1 W 9 13 5 7 1009.4 1009.5 0.0
16/01:30pm 13.6 10.6 7.6 67 2.9 WSW 13 17 7 9 1009.7 1009.8 0.0
16/01:00pm 13.4 11.6 7.8 69 2.8 W 7 9 4 5 1009.9 1010.0 0.0
16/12:30pm 13.7 11.7 7.2 65 3.2 W 7 11 4 6 1010.4 1010.5 0.0
16/12:00pm 13.9 12.1 7.2 64 3.3 NNW 6 7 3 4 1010.7 1010.8 0.0
16/11:30am 12.0 9.8 6.3 68 2.7 NNE 7 9 4 5 1010.8 1010.9 0.0
16/11:00am 12.1 9.8 5.9 66 2.9 NNE 7 9 4 5 1011.2 1011.3 0.0
16/10:30am 12.1 9.5 6.2 67 2.8 NNE 9 11 5 6 1011.5 1011.6 0.0
16/10:00am 11.3 8.8 6.4 72 2.3 NNE 9 11 5 6 1011.8 1011.9 0.0
16/09:30am 10.5 8.1 7.0 79 1.7 NE 9 13 5 7 1011.8 1011.9 0.0
16/09:00am 9.5 6.4 7.1 85 1.1 ENE 13 17 7 9 1011.9 1012.0 0.0
16/08:30am 9.1 6.1 7.7 91 0.7 E 13 17 7 9 1012.0 1012.1 0.0
16/08:00am 8.6 5.6 7.5 93 0.5 E 13 19 7 10 1012.3 1012.4 0.0
16/07:30am 7.8 4.5 6.6 92 0.6 E 13 17 7 9 1012.2 1012.3 0.0
16/07:00am 7.7 4.4 6.5 92 0.5 E 13 19 7 10 1012.4 1012.5 0.0
16/06:30am 7.3 3.9 6.1 92 0.5 E 13 15 7 8 1012.4 1012.5 0.0
16/06:00am 7.4 4.0 6.0 91 0.6 E 13 19 7 10 1012.3 1012.4 0.0
16/05:30am 7.2 3.4 5.8 91 0.6 E 15 19 8 10 1012.3 1012.4 0.0
16/05:00am 7.2 3.3 5.5 89 0.8 E 15 19 8 10 1012.3 1012.4 0.0
16/04:30am 7.5 4.0 5.5 87 0.9 E 13 17 7 9 1012.7 1012.8 0.0
16/04:00am 7.4 3.5 5.4 87 0.9 E 15 19 8 10 1012.6 1012.7 0.0
16/03:30am 7.0 3.4 5.2 88 0.8 ENE 13 17 7 9 1012.7 1012.8 0.0
16/03:00am 7.2 3.3 5.2 87 0.9 ENE 15 17 8 9 1012.8 1012.9 0.0
16/02:30am 7.4 4.2 5.2 86 1.0 ENE 11 15 6 8 1013.1 1013.2 0.0
16/02:00am 8.0 4.9 5.6 85 1.1 ENE 11 15 6 8 1013.4 1013.5 0.0
16/01:30am 8.5 5.1 5.8 83 1.2 NE 13 17 7 9 1013.5 1013.6 0.0
16/01:00am 10.0 6.1 6.9 81 1.5 NNE 17 20 9 11 1013.9 1014.0 0.0
16/12:30am 10.5 5.1 6.5 76 1.9 NNE 24 32 13 17 1013.8 1013.9 0.0
16/12:00am 11.0 5.5 7.7 80 1.6 N 26 30 14 16 1013.7 1013.8 0.0
 
Date/Time
EST
Temp
°C
App
Temp
°C
Dew
Point
Rel
Hum
%
Delta-T
°C
Wind Press
QNH
hPa
Press
MSL
hPa
Rain
since 9 am
mm
Dir
 
Spd
km/h
Gust
km/h
Spd
kts
Gust
kts
15/11:30pm 9.5 7.2 7.6 88 0.9 NNE 9 15 5 8 1014.1 1014.2 0.0
15/11:00pm 9.4 7.5 7.5 88 0.9 NE 7 11 4 6 1014.4 1014.5 0.0
15/10:30pm 8.7 5.9 6.8 88 0.9 ENE 11 13 6 7 1014.5 1014.6 0.0
15/10:00pm 8.7 6.2 6.5 86 1.0 NE 9 11 5 6 1014.5 1014.6 0.0
15/09:30pm 8.9 6.7 6.3 84 1.2 NE 7 9 4 5 1014.7 1014.8 0.0
15/09:00pm 9.0 6.8 6.4 84 1.2 ENE 7 9 4 5 1014.7 1014.8 0.0
15/08:30pm 8.6 5.9 5.5 81 1.4 ENE 9 9 5 5 1014.7 1014.8 0.0
15/08:00pm 8.7 5.8 4.9 77 1.7 E 9 11 5 6 1015.0 1015.1 0.0
15/07:30pm 9.2 6.4 5.2 76 1.8 SSE 9 13 5 7 1014.8 1014.9 0.0
15/07:00pm 9.7 5.8 5.5 75 1.9 SSE 15 22 8 12 1014.6 1014.7 0.0
15/06:30pm 10.3 5.8 5.9 74 2.0 S 19 26 10 14 1014.5 1014.6 0.0
15/06:00pm 10.9 6.3 6.3 73 2.2 S 20 28 11 15 1014.4 1014.5 0.0
15/05:30pm 11.4 6.0 6.5 72 2.3 S 24 30 13 16 1014.4 1014.5 0.0
15/05:00pm 11.6 5.8 6.3 70 2.5 S 26 32 14 17 1014.4 1014.5 0.0
15/04:30pm 11.7 5.9 6.2 69 2.6 S 26 33 14 18 1014.3 1014.4 0.0
15/04:00pm 11.8 5.2 5.9 67 2.8 S 30 37 16 20 1014.4 1014.5 0.0
15/03:30pm 12.1 6.0 6.4 68 2.7 S 28 33 15 18 1014.6 1014.7 0.0
15/03:00pm 12.0 5.8 6.3 68 2.7 S 28 32 15 17 1014.7 1014.8 0.0
15/02:30pm 12.2 5.9 5.8 65 3.0 S 28 32 15 17 1015.1 1015.2 0.0
15/02:00pm 12.3 6.8 6.1 66 2.9 S 24 30 13 16 1015.3 1015.4 0.0
15/01:30pm 12.7 7.5 5.6 62 3.3 S 22 28 12 15 1015.5 1015.6 0.0
15/01:00pm 12.7 7.5 5.4 61 3.4 S 22 26 12 14 1016.0 1016.0 0.0
15/12:30pm 12.3 7.5 4.5 59 3.5 S 19 24 10 13 1016.5 1016.5 0.0
15/12:00pm 13.6 10.3 2.2 46 5.0 ESE 9 17 5 9 1017.1 1017.1 0.0
15/11:30am 12.1 7.3 0.5 45 4.8 ESE 15 20 8 11 1017.3 1017.3 0.0
15/11:00am 12.2 6.9 2.1 50 4.3 ESE 19 26 10 14 1017.5 1017.5 0.0
15/10:30am 12.0 7.2 2.7 53 4.1 SE 17 26 9 14 1018.0 1018.0 0.0
15/10:00am 11.5 6.3 2.5 54 3.9 SE 19 22 10 12 1018.3 1018.3 0.0
15/09:30am 10.0 6.0 3.1 62 3.0 E 13 19 7 10 1018.6 1018.6 0.0
15/09:00am 10.0 6.2 3.7 65 2.8 SE 13 17 7 9 1018.8 1018.8 0.0
15/08:30am 9.0 5.5 3.6 69 2.3 ESE 11 15 6 8 1018.8 1018.8 0.0
15/08:00am 8.4 4.7 4.2 75 1.8 E 13 15 7 8 1018.9 1018.9 0.0
15/07:30am 7.5 4.2 4.6 82 1.3 E 11 13 6 7 1018.7 1018.7 0.0
15/07:00am 6.1 1.9 3.6 84 1.0 E 15 19 8 10 1018.3 1018.3 0.0
15/06:30am 5.2 0.5 3.1 86 0.9 E 17 20 9 11 1018.3 1018.3 0.0
15/06:00am 5.4 0.8 3.6 88 0.8 ESE 17 17 9 9 1018.2 1018.2 0.0
15/05:30am 5.8 1.7 4.1 89 0.7 ESE 15 17 8 9 1018.1 1018.1 0.0
15/05:00am 6.1 1.7 4.6 90 0.6 ESE 17 19 9 10 1018.0 1018.0 0.0
15/04:30am 6.3 1.9 4.6 89 0.7 E 17 19 9 10 1018.2 1018.2 0.0
15/04:00am 6.1 2.0 4.3 88 0.8 E 15 17 8 9 1018.2 1018.2 0.0
15/03:30am 6.6 2.2 4.8 88 0.8 E 17 20 9 11 1018.5 1018.5 0.0
15/03:00am 6.8 2.8 5.0 88 0.8 E 15 17 8 9 1018.8 1018.8 0.0
15/02:30am 6.8 3.1 4.6 86 1.0 E 13 15 7 8 1018.8 1018.8 0.0
15/02:00am 7.5 3.5 5.0 84 1.1 E 15 17 8 9 1018.9 1018.9 0.0
15/01:30am 7.2 3.1 4.3 82 1.3 E 15 17 8 9 1019.2 1019.2 0.0
15/01:00am 6.8 2.5 3.1 77 1.5 ESE 15 17 8 9 1019.4 1019.4 0.0
15/12:30am 6.5 2.4 2.4 75 1.7 ESE 13 17 7 9 1019.4 1019.4 0.0
15/12:00am 7.2 3.2 3.1 75 1.7 ESE 13 15 7 8 1019.6 1019.6 0.0
 
Date/Time
EST
Temp
°C
App
Temp
°C
Dew
Point
Rel
Hum
%
Delta-T
°C
Wind Press
QNH
hPa
Press
MSL
hPa
Rain
since 9 am
mm
Dir
 
Spd
km/h
Gust
km/h
Spd
kts
Gust
kts
14/11:30pm 7.7 4.2 3.6 75 1.8 SE 11 13 6 7 1019.8 1019.8 0.0
14/11:00pm 8.3 5.8 3.9 74 1.9 ESE 6 7 3 4 1020.2 1020.2 0.0
14/10:30pm 8.5 6.1 4.3 75 1.8 E 6 7 3 4 1020.3 1020.3 0.0
14/10:00pm 8.4 5.8 4.0 74 1.9 ENE 7 9 4 5 1020.3 1020.3 0.0
14/09:30pm 8.6 5.1 3.6 71 2.2 ESE 11 11 6 6 1020.2 1020.2 0.0
14/09:00pm 8.8 5.7 3.8 71 2.2 ESE 9 13 5 7 1020.2 1020.2 0.0
14/08:30pm 8.8 5.7 3.8 71 2.2 ESE 9 15 5 8 1019.9 1019.9 0.0
14/08:00pm 8.2 5.0 3.1 70 2.2 SE 9 13 5 7 1019.7 1019.7 0.0
14/07:30pm 8.5 5.2 2.5 66 2.5 SSE 9 13 5 7 1019.5 1019.5 0.0
14/07:00pm 9.4 5.8 2.7 63 2.8 SE 11 17 6 9 1019.3 1019.3 0.0
14/06:30pm 10.4 5.3 3.9 64 2.9 S 20 30 11 16 1019.2 1019.2 0.0
14/06:00pm 10.4 4.5 3.7 63 2.9 S 24 33 13 18 1019.0 1019.0 0.0
14/05:30pm 10.6 3.6 3.9 63 3.0 S 30 33 16 18 1018.8 1018.8 0.0
14/05:00pm 11.0 5.0 3.5 60 3.3 SSW 24 28 13 15 1018.7 1018.7 0.0
14/04:30pm 11.4 5.6 4.4 62 3.2 SSW 24 32 13 17 1018.7 1018.7 0.0
14/04:00pm 11.9 6.7 5.5 65 3.0 SSW 22 30 12 16 1018.7 1018.7 0.0
14/03:30pm 13.4 8.5 5.1 57 3.9 SSW 20 26 11 14 1018.7 1018.7 0.0

Other Formats:

Comma delimited format used in spreadsheet applications
http://www.bom.gov.au/fwo/IDT60801/IDT60801.94974.axf

JavaScript Object Notation format (JSON) in row-major order
http://www.bom.gov.au/fwo/IDT60801/IDT60801.94974.json